Time;durP1;ratioP1;P1;durP2;ratioP2;P2;SDS_P1;SDS_P2;PMS_P1;PMS_P2;Temp;Humidity;BMP_temperature;BMP_pressure;BME280_temperature;BME280_humidity;BME280_pressure;Samples;Min_cycle;Max_cycle;Signal;HPM_P1;HPM_P2
2022/10/20 00:00:17;;;;;;;;;;;16.80;99.90;;;;;;5072487;28;19905;-66
2022/10/20 00:02:43;;;;;;;;;;;16.30;99.90;;;;;;5072479;28;20414;-65
2022/10/20 00:05:08;;;;;;;;;;;16.80;99.90;;;;;;5071285;28;19928;-66
2022/10/20 00:07:34;;;;;;;;;;;16.80;99.90;;;;;;5072317;28;19916;-65
2022/10/20 00:09:59;;;;;;;;;;;16.80;99.90;;;;;;5072363;28;19940;-66
2022/10/20 00:12:25;;;;;;;;;;;16.50;99.90;;;;;;5072447;28;19958;-65
2022/10/20 00:14:50;;;;;;;;;;;16.60;99.90;;;;;;5072487;28;19912;-66
2022/10/20 00:17:16;;;;;;;;;;;16.60;99.90;;;;;;5072189;28;19904;-65
2022/10/20 00:19:41;;;;;;;;;;;16.10;99.90;;;;;;5071896;28;20405;-66
2022/10/20 00:22:07;;;;;;;;;;;16.10;99.90;;;;;;5072338;28;19920;-65
2022/10/20 00:24:32;;;;;;;;;;;16.40;99.90;;;;;;5072421;28;19996;-65
2022/10/20 00:26:58;;;;;;;;;;;16.50;99.90;;;;;;5072720;28;19971;-66
2022/10/20 00:29:24;;;;;;;;;;;16.10;99.90;;;;;;5072151;28;19910;-65
2022/10/20 00:31:49;;;;;;;;;;;16.80;99.90;;;;;;5072133;28;19958;-65
2022/10/20 00:34:15;;;;;;;;;;;16.50;99.90;;;;;;5071976;28;20371;-65
2022/10/20 00:36:40;;;;;;;;;;;16.10;99.90;;;;;;5072586;28;20287;-66
2022/10/20 00:39:06;;;;;;;;;;;16.60;99.90;;;;;;5072263;28;19959;-66
2022/10/20 00:41:32;;;;;;;;;;;16.60;99.90;;;;;;5072173;28;20331;-65
2022/10/20 00:43:59;;;;;;;;;;;16.20;99.90;;;;;;5072507;28;19951;-66
2022/10/20 00:46:27;;;;;;;;;;;16.50;99.90;;;;;;5071793;28;19997;-66
2022/10/20 00:48:54;;;;;;;;;;;16.00;99.90;;;;;;5072122;28;20282;-66
2022/10/20 00:51:23;;;;;;;;;;;16.20;99.90;;;;;;5072079;28;19927;-66
2022/10/20 00:53:50;;;;;;;;;;;16.00;99.90;;;;;;5072179;28;19915;-65
2022/10/20 00:56:15;;;;;;;;;;;16.40;99.90;;;;;;5072437;28;19904;-66
2022/10/20 00:58:42;;;;;;;;;;;16.30;99.90;;;;;;5072037;28;20290;-65
2022/10/20 01:01:07;;;;;;;;;;;15.60;99.90;;;;;;5071738;28;20351;-66
2022/10/20 01:03:44;;;;;;;;;;;15.70;99.90;;;;;;5070399;28;19911;-66
2022/10/20 01:06:11;;;;;;;;;;;16.10;99.90;;;;;;5072322;28;19908;-66
2022/10/20 01:08:36;;;;;;;;;;;15.50;99.90;;;;;;5072256;28;19912;-66
2022/10/20 01:11:04;;;;;;;;;;;15.80;99.90;;;;;;5075192;28;20268;-65
2022/10/20 01:13:50;;;;;;;;;;;15.60;99.90;;;;;;5075593;28;19905;-66
2022/10/20 01:16:34;;;;;;;;;;;15.70;99.90;;;;;;5064560;28;19952;-66
2022/10/20 01:19:15;;;;;;;;;;;15.70;99.90;;;;;;5075239;28;19977;-65
2022/10/20 01:21:40;;;;;;;;;;;16.00;99.90;;;;;;5075907;28;19927;-66
2022/10/20 01:24:06;;;;;;;;;;;15.40;99.90;;;;;;5075398;28;19904;-66
2022/10/20 01:26:46;;;;;;;;;;;15.90;99.90;;;;;;5075436;28;19958;-65
2022/10/20 01:29:13;;;;;;;;;;;15.90;99.90;;;;;;5074169;28;20489;-66
2022/10/20 01:31:39;;;;;;;;;;;15.40;99.90;;;;;;5074828;28;20305;-66
2022/10/20 01:34:04;;;;;;;;;;;15.80;99.90;;;;;;5075509;28;19905;-66
2022/10/20 01:36:32;;;;;;;;;;;15.50;99.90;;;;;;5075648;28;19905;-66
2022/10/20 01:39:10;;;;;;;;;;;15.20;99.90;;;;;;5075260;28;19951;-65
2022/10/20 01:41:41;;;;;;;;;;;15.80;99.90;;;;;;5075114;28;19999;-66
2022/10/20 01:44:09;;;;;;;;;;;15.40;99.90;;;;;;5074893;28;20392;-66
2022/10/20 01:46:35;;;;;;;;;;;15.40;99.90;;;;;;5074662;28;19912;-66
2022/10/20 01:49:02;;;;;;;;;;;15.60;99.90;;;;;;5075587;28;19908;-65
2022/10/20 01:51:27;;;;;;;;;;;15.00;99.90;;;;;;5074837;28;19926;-66
2022/10/20 01:53:53;;;;;;;;;;;15.70;99.90;;;;;;5073676;28;19904;-66
2022/10/20 01:56:25;;;;;;;;;;;15.20;99.90;;;;;;5074759;28;19912;-66
2022/10/20 01:59:09;;;;;;;;;;;15.10;99.90;;;;;;5075080;28;19927;-66
2022/10/20 02:01:41;;;;;;;;;;;15.00;99.90;;;;;;5074518;28;19911;-66
2022/10/20 02:04:07;;;;;;;;;;;15.40;99.90;;;;;;5075076;28;19905;-66
2022/10/20 02:06:36;;;;;;;;;;;15.40;99.90;;;;;;5074571;28;19904;-65
2022/10/20 02:09:05;;;;;;;;;;;14.80;99.90;;;;;;5075014;28;19904;-66
2022/10/20 02:11:32;;;;;;;;;;;14.90;99.90;;;;;;5074304;28;19904;-65
2022/10/20 02:13:58;;;;;;;;;;;14.70;99.90;;;;;;5074491;28;20467;-66
2022/10/20 02:16:36;;;;;;;;;;;15.30;99.90;;;;;;5074245;28;19908;-65
2022/10/20 02:19:02;;;;;;;;;;;14.90;99.90;;;;;;5074304;28;20528;-66
2022/10/20 02:21:28;;;;;;;;;;;15.10;99.90;;;;;;5073699;28;20393;-66
2022/10/20 02:23:55;;;;;;;;;;;15.20;99.90;;;;;;5074294;28;19905;-66
2022/10/20 02:26:22;;;;;;;;;;;16.00;99.90;;;;;;5074673;28;19904;-66
2022/10/20 02:28:51;;;;;;;;;;;16.00;99.90;;;;;;5074099;28;19932;-66
2022/10/20 02:31:17;;;;;;;;;;;14.90;99.90;;;;;;5073901;28;19991;-66
2022/10/20 02:33:44;;;;;;;;;;;15.40;99.90;;;;;;5074169;28;20279;-66
2022/10/20 02:36:12;;;;;;;;;;;16.40;99.90;;;;;;5074345;28;19905;-65
2022/10/20 02:38:37;;;;;;;;;;;14.30;99.90;;;;;;5074283;28;19911;-66
2022/10/20 02:41:03;;;;;;;;;;;14.20;99.90;;;;;;5073776;28;20286;-65
2022/10/20 02:43:28;;;;;;;;;;;17.00;99.90;;;;;;5073683;28;19911;-66
2022/10/20 02:45:54;;;;;;;;;;;14.30;99.90;;;;;;5073406;28;20000;-65
2022/10/20 02:48:20;;;;;;;;;;;15.30;99.90;;;;;;5073734;28;19966;-66
2022/10/20 02:50:45;;;;;;;;;;;15.00;99.90;;;;;;5073512;28;19904;-64
2022/10/20 02:53:11;;;;;;;;;;;15.80;99.90;;;;;;5073193;28;19955;-64
2022/10/20 02:55:36;;;;;;;;;;;16.20;99.90;;;;;;5073423;28;19908;-64
2022/10/20 02:58:02;;;;;;;;;;;14.40;99.90;;;;;;5072965;28;19950;-66
2022/10/20 03:00:30;;;;;;;;;;;15.00;99.90;;;;;;5072516;28;19920;-65
2022/10/20 03:02:56;;;;;;;;;;;15.00;99.90;;;;;;5073159;28;20340;-65
2022/10/20 03:05:22;;;;;;;;;;;15.20;99.90;;;;;;5073861;28;19905;-65
2022/10/20 03:07:47;;;;;;;;;;;15.60;99.90;;;;;;5073257;28;19912;-66
2022/10/20 03:10:13;;;;;;;;;;;15.50;99.90;;;;;;5073312;28;19912;-65
2022/10/20 03:12:38;;;;;;;;;;;15.40;99.90;;;;;;5072956;28;19954;-66
2022/10/20 03:15:04;;;;;;;;;;;15.00;99.90;;;;;;5073512;28;19904;-66
2022/10/20 03:17:30;;;;;;;;;;;15.00;99.90;;;;;;5073224;28;19911;-66
2022/10/20 03:19:55;;;;;;;;;;;15.30;99.90;;;;;;5072991;28;19916;-65
2022/10/20 03:22:21;;;;;;;;;;;14.90;99.90;;;;;;5073263;28;19904;-66
2022/10/20 03:24:46;;;;;;;;;;;14.80;99.90;;;;;;5073088;28;19908;-66
2022/10/20 03:27:12;;;;;;;;;;;15.20;99.90;;;;;;5073125;28;19908;-65
2022/10/20 03:29:37;;;;;;;;;;;14.90;99.90;;;;;;5072929;28;19943;-66
2022/10/20 03:32:03;;;;;;;;;;;15.30;99.90;;;;;;5072776;28;19991;-65
2022/10/20 03:34:29;;;;;;;;;;;15.30;99.90;;;;;;5072389;28;19904;-66
2022/10/20 03:36:54;;;;;;;;;;;14.90;99.90;;;;;;5072819;28;20398;-66
2022/10/20 03:39:20;;;;;;;;;;;15.20;99.90;;;;;;5072883;28;19908;-66
2022/10/20 03:41:45;;;;;;;;;;;15.10;99.90;;;;;;5072875;28;20354;-66
2022/10/20 03:44:11;;;;;;;;;;;15.10;99.90;;;;;;5072771;28;20282;-66
2022/10/20 03:46:37;;;;;;;;;;;15.00;99.90;;;;;;5072623;28;19960;-66
2022/10/20 03:49:02;;;;;;;;;;;15.20;99.90;;;;;;5073212;28;20383;-66
2022/10/20 03:51:28;;;;;;;;;;;14.90;99.90;;;;;;5072716;28;19908;-66
2022/10/20 03:53:54;;;;;;;;;;;14.90;99.90;;;;;;5072707;28;19908;-65
2022/10/20 03:56:20;;;;;;;;;;;15.00;99.90;;;;;;5072679;28;19905;-66
2022/10/20 03:58:46;;;;;;;;;;;15.20;99.90;;;;;;5072559;28;19905;-65
2022/10/20 04:01:15;;;;;;;;;;;15.10;99.90;;;;;;5072605;28;19912;-65
2022/10/20 04:03:41;;;;;;;;;;;15.00;99.90;;;;;;5073000;28;19908;-65
2022/10/20 04:06:06;;;;;;;;;;;15.20;99.90;;;;;;5072482;28;19910;-66
2022/10/20 04:08:32;;;;;;;;;;;15.00;99.90;;;;;;5072295;28;19919;-65
2022/10/20 04:10:57;;;;;;;;;;;14.90;99.90;;;;;;5072300;28;19998;-65
2022/10/20 04:13:23;;;;;;;;;;;15.10;99.90;;;;;;5072798;28;19912;-66
2022/10/20 04:15:48;;;;;;;;;;;15.00;99.90;;;;;;5072609;28;20382;-66
2022/10/20 04:18:14;;;;;;;;;;;15.20;99.90;;;;;;5072485;28;19912;-66
2022/10/20 04:20:40;;;;;;;;;;;15.00;99.90;;;;;;5072368;28;19916;-66
2022/10/20 04:23:05;;;;;;;;;;;14.90;99.90;;;;;;5072320;28;20357;-66
2022/10/20 04:25:31;;;;;;;;;;;14.90;99.90;;;;;;5072387;28;20370;-66
2022/10/20 04:27:57;;;;;;;;;;;15.00;99.90;;;;;;5072287;28;19917;-66
2022/10/20 04:30:23;;;;;;;;;;;15.00;99.90;;;;;;5070990;28;20282;-65
2022/10/20 04:32:48;;;;;;;;;;;15.00;99.90;;;;;;5071977;28;19905;-66
2022/10/20 04:35:14;;;;;;;;;;;15.20;99.90;;;;;;5072344;28;19965;-66
2022/10/20 04:37:39;;;;;;;;;;;15.20;99.90;;;;;;5072458;28;20367;-66
2022/10/20 04:40:05;;;;;;;;;;;15.20;99.90;;;;;;5071759;28;19905;-66
2022/10/20 04:42:31;;;;;;;;;;;15.00;99.90;;;;;;5072169;28;19987;-65
2022/10/20 04:44:56;;;;;;;;;;;15.20;99.90;;;;;;5073856;28;20270;-66
2022/10/20 04:47:22;;;;;;;;;;;15.20;99.90;;;;;;5075959;28;19912;-66
2022/10/20 04:49:47;;;;;;;;;;;15.20;99.90;;;;;;5076152;28;19912;-65
2022/10/20 04:52:13;;;;;;;;;;;15.00;99.90;;;;;;5076421;28;19943;-66
2022/10/20 04:54:38;;;;;;;;;;;15.10;99.90;;;;;;5075690;28;19904;-65
2022/10/20 04:57:05;;;;;;;;;;;14.90;99.90;;;;;;5075930;28;19943;-66
2022/10/20 04:59:30;;;;;;;;;;;15.00;99.90;;;;;;5076321;28;20290;-65
2022/10/20 05:01:56;;;;;;;;;;;14.90;99.90;;;;;;5075971;28;19911;-66
2022/10/20 05:04:21;;;;;;;;;;;15.00;99.90;;;;;;5075959;28;20285;-65
2022/10/20 05:06:47;;;;;;;;;;;15.00;99.90;;;;;;5075724;28;19948;-66
2022/10/20 05:09:14;;;;;;;;;;;15.20;99.90;;;;;;5075470;28;19908;-65
2022/10/20 05:11:40;;;;;;;;;;;15.20;99.90;;;;;;5075620;28;20298;-65
2022/10/20 05:14:06;;;;;;;;;;;15.10;99.90;;;;;;5075615;28;20383;-66
2022/10/20 05:16:32;;;;;;;;;;;15.20;99.90;;;;;;5076015;28;19912;-66
2022/10/20 05:18:58;;;;;;;;;;;15.40;99.90;;;;;;5075333;28;19916;-65
2022/10/20 05:21:25;;;;;;;;;;;15.30;99.90;;;;;;5075237;28;19906;-66
2022/10/20 05:23:55;;;;;;;;;;;15.40;99.90;;;;;;5075062;28;19911;-66
2022/10/20 05:26:21;;;;;;;;;;;15.30;99.90;;;;;;5075460;28;20385;-66
2022/10/20 05:28:47;;;;;;;;;;;15.50;99.90;;;;;;5075151;28;19912;-66
2022/10/20 05:31:14;;;;;;;;;;;15.50;99.90;;;;;;5075552;28;20401;-65
2022/10/20 05:33:42;;;;;;;;;;;15.60;99.90;;;;;;5075206;28;20278;-65
2022/10/20 05:36:09;;;;;;;;;;;15.60;99.90;;;;;;5075040;28;19939;-65
2022/10/20 05:38:35;;;;;;;;;;;15.40;99.90;;;;;;5074954;28;20377;-66
2022/10/20 05:41:05;;;;;;;;;;;15.60;99.90;;;;;;5075039;28;19991;-66
2022/10/20 05:43:31;;;;;;;;;;;15.60;99.90;;;;;;5075413;28;19915;-65
2022/10/20 05:45:56;;;;;;;;;;;15.60;99.90;;;;;;5074860;28;20370;-66
2022/10/20 05:48:22;;;;;;;;;;;15.60;99.90;;;;;;5074937;28;19955;-67
2022/10/20 05:50:47;;;;;;;;;;;15.60;99.90;;;;;;5074633;28;19904;-67
2022/10/20 05:53:13;;;;;;;;;;;15.50;99.90;;;;;;5074128;28;19935;-65
2022/10/20 05:55:38;;;;;;;;;;;15.60;99.90;;;;;;5073109;28;19915;-66
2022/10/20 05:58:04;;;;;;;;;;;15.60;99.90;;;;;;5073932;28;19972;-68
2022/10/20 06:00:39;;;;;;;;;;;15.50;99.90;;;;;;5074698;28;19999;-66
2022/10/20 06:03:05;;;;;;;;;;;15.60;99.90;;;;;;5075143;28;19908;-67
2022/10/20 06:05:31;;;;;;;;;;;15.50;99.90;;;;;;5074278;28;20030;-67
2022/10/20 06:07:56;;;;;;;;;;;15.60;99.90;;;;;;5073279;28;19916;-66
2022/10/20 06:10:23;;;;;;;;;;;15.60;99.90;;;;;;5074030;28;19904;-67
2022/10/20 06:12:48;;;;;;;;;;;15.60;99.90;;;;;;5074440;28;19916;-67
2022/10/20 06:15:14;;;;;;;;;;;15.60;99.90;;;;;;5075156;28;19927;-67
2022/10/20 06:17:40;;;;;;;;;;;15.70;99.90;;;;;;5074531;28;19939;-67
2022/10/20 06:20:05;;;;;;;;;;;15.80;99.90;;;;;;5074666;28;19916;-67
2022/10/20 06:22:31;;;;;;;;;;;15.60;99.90;;;;;;5074363;28;19970;-68
2022/10/20 06:24:56;;;;;;;;;;;15.60;99.90;;;;;;5074380;28;19973;-67
2022/10/20 06:27:22;;;;;;;;;;;15.60;99.90;;;;;;5074623;28;20011;-68
2022/10/20 06:29:48;;;;;;;;;;;15.60;99.90;;;;;;5074381;28;19905;-67
2022/10/20 06:32:16;;;;;;;;;;;15.50;99.90;;;;;;5073970;28;19904;-68
2022/10/20 06:34:42;;;;;;;;;;;15.50;99.90;;;;;;5074445;28;19958;-67
2022/10/20 06:37:08;;;;;;;;;;;15.50;99.90;;;;;;5073735;28;19908;-67
2022/10/20 06:39:34;;;;;;;;;;;15.60;99.90;;;;;;5074475;28;20344;-67
2022/10/20 06:42:00;;;;;;;;;;;15.50;99.90;;;;;;5073948;28;19910;-67
2022/10/20 06:44:26;;;;;;;;;;;15.50;99.90;;;;;;5073720;28;19905;-68
2022/10/20 06:46:51;;;;;;;;;;;15.60;99.90;;;;;;5074008;28;19966;-68
2022/10/20 06:49:17;;;;;;;;;;;15.60;99.90;;;;;;5073982;28;20063;-67
2022/10/20 06:51:43;;;;;;;;;;;15.70;99.90;;;;;;5073137;28;19916;-67
2022/10/20 06:54:09;;;;;;;;;;;15.70;99.90;;;;;;5073649;28;20266;-67
2022/10/20 06:56:35;;;;;;;;;;;15.80;99.90;;;;;;5073928;28;19967;-67
2022/10/20 06:59:01;;;;;;;;;;;15.80;99.90;;;;;;5073828;28;19904;-66
2022/10/20 07:01:26;;;;;;;;;;;15.70;99.90;;;;;;5073727;28;20397;-67
2022/10/20 07:03:53;;;;;;;;;;;15.80;99.90;;;;;;5073552;28;20294;-66
2022/10/20 07:06:20;;;;;;;;;;;15.80;99.90;;;;;;5073624;28;19911;-66
2022/10/20 07:08:46;;;;;;;;;;;15.90;99.90;;;;;;5073275;28;20002;-66
2022/10/20 07:11:13;;;;;;;;;;;16.10;99.90;;;;;;5073466;28;19939;-66
2022/10/20 07:13:39;;;;;;;;;;;17.10;99.90;;;;;;5073431;28;19904;-66
2022/10/20 07:16:06;;;;;;;;;;;17.90;99.90;;;;;;5073581;28;20385;-66
2022/10/20 07:18:31;;;;;;;;;;;17.20;99.90;;;;;;5073157;28;19911;-66
2022/10/20 07:20:58;;;;;;;;;;;18.60;99.90;;;;;;5072932;28;19912;-66
2022/10/20 07:23:24;;;;;;;;;;;19.10;99.90;;;;;;5073246;28;19904;-66
2022/10/20 07:25:50;;;;;;;;;;;19.30;99.90;;;;;;5073239;28;19910;-66
2022/10/20 07:28:15;;;;;;;;;;;18.70;99.90;;;;;;5073608;28;20014;-67
2022/10/20 07:30:41;;;;;;;;;;;18.20;99.90;;;;;;5073079;28;19911;-66
2022/10/20 07:33:07;;;;;;;;;;;17.90;99.90;;;;;;5073032;28;19911;-66
2022/10/20 07:35:33;;;;;;;;;;;17.60;99.90;;;;;;5072832;28;20401;-66
2022/10/20 07:37:58;;;;;;;;;;;17.70;99.90;;;;;;5073141;28;19908;-67
2022/10/20 07:40:24;;;;;;;;;;;18.40;99.90;;;;;;5072981;28;19911;-66
2022/10/20 07:42:49;;;;;;;;;;;20.40;99.90;;;;;;5072918;28;19916;-67
2022/10/20 07:45:15;;;;;;;;;;;20.90;99.90;;;;;;5072999;28;19952;-67
2022/10/20 07:47:40;;;;;;;;;;;20.40;99.90;;;;;;5072843;28;19920;-67
2022/10/20 07:50:06;;;;;;;;;;;21.70;99.90;;;;;;5072468;28;19958;-66
2022/10/20 07:52:32;;;;;;;;;;;21.50;99.90;;;;;;5072906;28;19904;-66
2022/10/20 07:54:57;;;;;;;;;;;21.50;99.90;;;;;;5072608;28;19915;-67
2022/10/20 07:57:23;;;;;;;;;;;22.40;99.90;;;;;;5072646;28;19932;-67
2022/10/20 07:59:48;;;;;;;;;;;23.40;99.90;;;;;;5072623;28;19904;-67
2022/10/20 08:02:15;;;;;;;;;;;22.90;99.90;;;;;;5072573;28;20522;-67
2022/10/20 08:04:42;;;;;;;;;;;23.60;99.90;;;;;;5072268;28;19954;-67
2022/10/20 08:07:09;;;;;;;;;;;23.40;99.90;;;;;;5072410;28;19916;-67
2022/10/20 08:09:34;;;;;;;;;;;23.40;99.90;;;;;;5072807;28;19912;-67
2022/10/20 08:12:00;;;;;;;;;;;24.00;99.90;;;;;;5072626;28;19951;-67
2022/10/20 08:14:26;;;;;;;;;;;23.70;99.90;;;;;;5072628;28;19958;-67
2022/10/20 08:16:51;;;;;;;;;;;22.30;99.90;;;;;;5072321;28;19985;-66
2022/10/20 08:19:17;;;;;;;;;;;23.30;99.90;;;;;;5071475;28;19917;-67
2022/10/20 08:21:43;;;;;;;;;;;22.70;99.90;;;;;;5072639;28;19987;-67
2022/10/20 08:24:08;;;;;;;;;;;23.80;99.90;;;;;;5072422;28;20364;-67
2022/10/20 08:26:34;;;;;;;;;;;24.20;99.90;;;;;;5072413;28;19908;-67
2022/10/20 08:29:01;;;;;;;;;;;22.20;99.90;;;;;;5072514;28;19959;-67
2022/10/20 08:31:27;;;;;;;;;;;22.20;99.90;;;;;;5072790;28;19966;-67
2022/10/20 08:33:52;;;;;;;;;;;23.70;99.90;;;;;;5072087;28;19947;-67
2022/10/20 08:36:18;;;;;;;;;;;22.60;99.90;;;;;;5072241;28;19911;-67
2022/10/20 08:38:44;;;;;;;;;;;;;;;;;;5072735;28;19904;-67
2022/10/20 08:41:18;;;;;;;;;;;25.00;99.90;;;;;;5072310;28;19950;-67
2022/10/20 08:43:44;;;;;;;;;;;25.30;99.90;;;;;;5072209;28;19904;-67
2022/10/20 08:46:13;;;;;;;;;;;26.60;99.90;;;;;;5071578;28;19909;-67
2022/10/20 08:48:38;;;;;;;;;;;24.60;99.90;;;;;;5072112;28;19963;-67
2022/10/20 08:51:04;;;;;;;;;;;23.20;99.90;;;;;;5072235;28;19932;-67
2022/10/20 08:53:32;;;;;;;;;;;23.80;99.90;;;;;;5072687;28;20320;-67
2022/10/20 08:55:57;;;;;;;;;;;24.30;99.90;;;;;;5072050;28;19904;-67
2022/10/20 08:58:23;;;;;;;;;;;24.80;99.90;;;;;;5071891;28;19912;-67
2022/10/20 09:00:53;;;;;;;;;;;24.50;99.90;;;;;;5072555;28;19904;-67
2022/10/20 09:03:21;;;;;;;;;;;24.70;99.90;;;;;;5072080;28;19950;-67
2022/10/20 09:05:52;;;;;;;;;;;22.20;99.90;;;;;;5072035;28;19904;-68
2022/10/20 09:08:18;;;;;;;;;;;22.40;99.90;;;;;;5071886;28;19965;-68
2022/10/20 09:10:46;;;;;;;;;;;24.40;99.90;;;;;;5071968;28;19940;-68
2022/10/20 09:13:19;;;;;;;;;;;23.10;99.90;;;;;;5072142;28;19939;-68
2022/10/20 09:15:47;;;;;;;;;;;23.60;99.90;;;;;;5071696;28;19912;-67
2022/10/20 09:18:13;;;;;;;;;;;21.90;99.90;;;;;;5071816;28;19908;-67
2022/10/20 09:20:43;;;;;;;;;;;21.40;99.90;;;;;;5071924;28;19920;-68
2022/10/20 09:23:16;;;;;;;;;;;24.30;99.90;;;;;;5072001;28;20002;-67
2022/10/20 09:25:42;;;;;;;;;;;24.00;99.90;;;;;;5071774;28;19914;-68
2022/10/20 09:28:15;;;;;;;;;;;25.40;99.90;;;;;;5071609;28;19916;-67
2022/10/20 09:30:41;;;;;;;;;;;23.40;99.90;;;;;;5071408;28;20278;-68
2022/10/20 09:33:26;;;;;;;;;;;22.60;99.90;;;;;;5075255;28;19904;-67
2022/10/20 09:35:52;;;;;;;;;;;22.40;99.90;;;;;;5075237;28;19911;-68
2022/10/20 09:38:18;;;;;;;;;;;22.10;99.90;;;;;;5075262;28;19908;-67
2022/10/20 09:40:56;;;;;;;;;;;21.80;99.90;;;;;;5075570;28;19904;-68
2022/10/20 09:43:23;;;;;;;;;;;22.50;99.90;;;;;;5073943;28;19910;-67
2022/10/20 09:45:51;;;;;;;;;;;23.00;99.90;;;;;;5074453;28;19919;-68
2022/10/20 09:48:20;;;;;;;;;;;23.00;99.90;;;;;;5075009;28;20008;-68
2022/10/20 09:50:47;;;;;;;;;;;23.60;99.90;;;;;;5074997;28;19936;-68
2022/10/20 09:53:20;;;;;;;;;;;22.80;99.90;;;;;;5075264;28;19910;-67
2022/10/20 09:55:47;;;;;;;;;;;22.00;99.90;;;;;;5075579;28;19905;-68
2022/10/20 09:58:36;;;;;;;;;;;22.40;99.90;;;;;;5074749;28;19955;-67
2022/10/20 10:01:13;;;;;;;;;;;22.20;99.90;;;;;;5075891;28;19905;-68
2022/10/20 10:03:40;;;;;;;;;;;22.00;99.90;;;;;;5075325;28;19958;-67
2022/10/20 10:06:38;;;;;;;;;;;22.20;99.90;;;;;;5074750;28;19905;-67
2022/10/20 10:09:23;;;;;;;;;;;22.10;99.90;;;;;;4993043;28;20080;-68
2022/10/20 10:11:55;;;;;;;;;;;22.30;99.90;;;;;;4993421;28;19960;-68
2022/10/20 10:14:22;;;;;;;;;;;22.80;99.90;;;;;;4992810;28;19913;-67
2022/10/20 10:16:47;;;;;;;;;;;23.70;99.90;;;;;;4993138;28;20253;-68
2022/10/20 10:19:16;;;;;;;;;;;23.00;99.90;;;;;;4992945;28;19932;-67
2022/10/20 10:21:46;;;;;;;;;;;22.50;99.90;;;;;;4993488;28;19906;-67
2022/10/20 10:24:30;;;;;;;;;;;22.40;99.90;;;;;;4992930;28;20395;-67
2022/10/20 10:26:55;;;;;;;;;;;22.40;99.90;;;;;;4993132;28;20327;-67
2022/10/20 10:29:24;;;;;;;;;;;22.40;99.90;;;;;;4992553;28;19912;-68
2022/10/20 10:32:10;;;;;;;;;;;21.80;99.90;;;;;;4992796;28;19912;-67
2022/10/20 10:34:50;;;;;;;;;;;21.60;99.90;;;;;;4989199;28;20391;-67
2022/10/20 10:37:16;;;;;;;;;;;21.60;99.90;;;;;;4992990;28;19913;-68
2022/10/20 10:39:42;;;;;;;;;;;21.50;99.90;;;;;;4992527;28;19906;-67
2022/10/20 10:42:26;;;;;;;;;;;21.30;99.90;;;;;;4992237;28;19909;-67
2022/10/20 10:44:51;;;;;;;;;;;21.10;99.90;;;;;;5030037;28;20381;-68
2022/10/20 10:47:46;;;;;;;;;;;21.00;99.90;;;;;;5074020;28;19912;-68
2022/10/20 10:50:27;;;;;;;;;;;21.00;99.90;;;;;;5073875;28;19905;-67
2022/10/20 10:52:52;;;;;;;;;;;21.10;99.90;;;;;;5073933;28;19973;-67
2022/10/20 10:55:24;;;;;;;;;;;21.10;99.90;;;;;;5073770;28;19908;-67
2022/10/20 10:57:49;;;;;;;;;;;21.20;99.90;;;;;;5073770;28;19911;-67
2022/10/20 11:00:27;;;;;;;;;;;21.00;99.90;;;;;;5073713;28;19904;-67
2022/10/20 11:02:52;;;;;;;;;;;20.80;99.90;;;;;;5073706;28;19908;-68
2022/10/20 11:05:21;;;;;;;;;;;20.70;99.90;;;;;;5073709;28;19916;-67
2022/10/20 11:08:05;;;;;;;;;;;20.60;99.90;;;;;;5073948;28;19919;-67
2022/10/20 11:10:31;;;;;;;;;;;20.60;99.90;;;;;;5073307;28;20282;-70
2022/10/20 11:13:15;;;;;;;;;;;20.70;99.90;;;;;;5072970;28;19904;-67
2022/10/20 11:15:53;;;;;;;;;;;20.60;99.90;;;;;;5073530;28;19927;-67
2022/10/20 11:18:37;;;;;;;;;;;20.80;99.90;;;;;;5073407;28;19904;-68
2022/10/20 11:21:21;;;;;;;;;;;20.80;99.90;;;;;;5073286;28;20326;-67
2022/10/20 11:23:56;;;;;;;;;;;20.80;99.90;;;;;;5073467;28;19912;-68
2022/10/20 11:26:31;;;;;;;;;;;21.10;99.90;;;;;;5073152;28;20350;-68
2022/10/20 11:28:57;;;;;;;;;;;21.30;99.90;;;;;;5073496;28;19913;-68
2022/10/20 11:31:26;;;;;;;;;;;21.80;99.90;;;;;;5073132;28;20004;-67
2022/10/20 11:34:00;;;;;;;;;;;22.00;99.90;;;;;;5073113;28;19904;-68
2022/10/20 11:36:30;;;;;;;;;;;22.60;99.90;;;;;;5072937;28;19904;-67
2022/10/20 11:38:56;;;;;;;;;;;23.20;99.90;;;;;;5072838;28;19904;-67
2022/10/20 11:41:33;;;;;;;;;;;23.20;99.90;;;;;;5072447;28;20279;-68
2022/10/20 11:44:13;;;;;;;;;;;23.60;99.90;;;;;;5073303;28;20286;-67
2022/10/20 11:46:47;;;;;;;;;;;23.60;99.90;;;;;;5072648;28;19958;-67
2022/10/20 11:49:13;;;;;;;;;;;23.80;99.90;;;;;;5072930;28;19923;-68
2022/10/20 11:51:51;;;;;;;;;;;23.80;99.90;;;;;;5072759;28;19904;-67
2022/10/20 11:54:20;;;;;;;;;;;24.10;99.90;;;;;;5072474;28;19958;-68
2022/10/20 11:57:04;;;;;;;;;;;24.60;99.90;;;;;;5072389;28;19915;-68
2022/10/20 11:59:48;;;;;;;;;;;24.80;99.90;;;;;;5072725;28;19904;-68
2022/10/20 12:02:22;;;;;;;;;;;24.90;99.90;;;;;;5072810;28;19944;-67
2022/10/20 12:04:59;;;;;;;;;;;25.00;99.90;;;;;;5071311;28;20434;-67
2022/10/20 12:07:43;;;;;;;;;;;25.20;99.90;;;;;;5072470;28;19913;-68
2022/10/20 12:10:14;;;;;;;;;;;25.60;99.90;;;;;;5072470;28;19961;-68
2022/10/20 12:12:46;;;;;;;;;;;25.40;99.90;;;;;;5072188;28;19957;-67
2022/10/20 12:15:22;;;;;;;;;;;25.20;99.90;;;;;;5072527;28;19958;-67
2022/10/20 12:17:48;;;;;;;;;;;25.10;99.90;;;;;;5072360;28;19905;-68
2022/10/20 12:20:20;;;;;;;;;;;25.00;99.90;;;;;;5072051;28;19923;-68
2022/10/20 12:22:58;;;;;;;;;;;25.00;99.90;;;;;;5072190;28;19908;-67
2022/10/20 12:25:23;;;;;;;;;;;25.20;99.90;;;;;;5071830;28;20286;-67
2022/10/20 12:27:49;;;;;;;;;;;;;;;;;;5072388;28;19916;-67
2022/10/20 12:30:33;;;;;;;;;;;25.60;99.90;;;;;;5072298;28;20331;-67
2022/10/20 12:33:15;;;;;;;;;;;25.40;99.90;;;;;;5072431;28;19931;-67
2022/10/20 12:35:56;;;;;;;;;;;25.10;99.90;;;;;;5072277;28;19910;-68
2022/10/20 12:38:22;;;;;;;;;;;24.90;99.90;;;;;;5072118;28;20419;-68
2022/10/20 12:40:50;;;;;;;;;;;24.80;99.90;;;;;;5072263;28;19940;-68
2022/10/20 12:43:27;;;;;;;;;;;25.40;99.90;;;;;;5072414;28;19908;-68
2022/10/20 12:45:56;;;;;;;;;;;25.80;99.90;;;;;;5072291;28;19916;-68
2022/10/20 12:48:22;;;;;;;;;;;25.90;99.90;;;;;;5072254;28;20362;-68
2022/10/20 12:50:49;;;;;;;;;;;25.40;99.90;;;;;;5072110;28;19911;-68
2022/10/20 12:53:20;;;;;;;;;;;25.20;99.90;;;;;;5071797;28;19908;-68
2022/10/20 12:56:18;;;;;;;;;;;25.30;99.90;;;;;;5072241;28;19908;-68
2022/10/20 12:59:02;;;;;;;;;;;25.20;99.90;;;;;;4990987;28;19917;-68
2022/10/20 13:01:28;;;;;;;;;;;25.30;99.90;;;;;;4990931;28;19913;-68
2022/10/20 13:03:53;;;;;;;;;;;25.50;99.90;;;;;;4990790;28;19905;-68
2022/10/20 13:06:22;;;;;;;;;;;25.80;99.90;;;;;;4992951;28;19909;-68
2022/10/20 13:09:10;;;;;;;;;;;25.60;99.90;;;;;;4993854;28;19914;-68
2022/10/20 13:11:43;;;;;;;;;;;25.70;99.90;;;;;;4983919;28;20331;-68
2022/10/20 13:14:11;;;;;;;;;;;25.90;99.90;;;;;;4994556;28;19913;-68
2022/10/20 13:16:57;;;;;;;;;;;26.00;99.90;;;;;;4994422;28;19916;-67
2022/10/20 13:19:27;;;;;;;;;;;25.80;99.90;;;;;;4974061;28;19917;-68
2022/10/20 13:21:54;;;;;;;;;;;25.50;99.90;;;;;;4974352;28;20373;-68
2022/10/20 13:24:22;;;;;;;;;;;25.60;99.90;;;;;;4974666;28;19910;-68
2022/10/20 13:26:49;;;;;;;;;;;25.70;99.90;;;;;;4974399;28;19906;-68
2022/10/20 13:29:18;;;;;;;;;;;25.60;99.90;;;;;;4974632;28;19910;-68
2022/10/20 13:31:47;;;;;;;;;;;25.40;99.90;;;;;;4974927;28;20392;-68
2022/10/20 13:34:13;;;;;;;;;;;25.20;99.90;;;;;;5001290;28;20508;-68
2022/10/20 13:36:41;;;;;;;;;;;25.10;99.90;;;;;;5032757;28;19952;-68
2022/10/20 13:39:07;;;;;;;;;;;25.10;99.90;;;;;;5033554;28;19905;-68
2022/10/20 13:41:35;;;;;;;;;;;25.10;99.90;;;;;;5033125;28;19916;-68
2022/10/20 13:44:05;;;;;;;;;;;25.10;99.90;;;;;;5033115;28;19905;-68
2022/10/20 13:46:31;;;;;;;;;;;25.10;99.90;;;;;;5032889;28;19955;-68
2022/10/20 13:49:16;;;;;;;;;;;25.00;99.90;;;;;;5033208;28;20375;-68
2022/10/20 13:51:54;;;;;;;;;;;25.10;99.90;;;;;;5032700;28;19912;-68
2022/10/20 13:54:25;;;;;;;;;;;25.30;99.90;;;;;;5033119;28;19905;-68
2022/10/20 13:56:51;;;;;;;;;;;25.40;99.90;;;;;;5060572;28;19959;-68
2022/10/20 13:59:19;;;;;;;;;;;25.40;99.90;;;;;;5074902;28;19948;-68
2022/10/20 14:01:49;;;;;;;;;;;25.30;99.90;;;;;;5075016;28;19924;-68
2022/10/20 14:04:22;;;;;;;;;;;25.40;99.90;;;;;;5075163;28;19950;-67
2022/10/20 14:06:48;;;;;;;;;;;25.30;99.90;;;;;;5074407;28;19950;-68
2022/10/20 14:09:15;;;;;;;;;;;25.30;99.90;;;;;;5074796;28;19909;-68
2022/10/20 14:11:42;;;;;;;;;;;25.30;99.90;;;;;;5074540;28;19904;-68
2022/10/20 14:14:11;;;;;;;;;;;25.30;99.90;;;;;;5075043;28;19914;-68
2022/10/20 14:16:38;;;;;;;;;;;25.20;99.90;;;;;;5074140;28;20285;-68
2022/10/20 14:19:10;;;;;;;;;;;25.40;99.90;;;;;;5074055;28;20333;-67
2022/10/20 14:21:48;;;;;;;;;;;25.70;99.90;;;;;;5074281;28;19908;-68
2022/10/20 14:24:28;;;;;;;;;;;25.70;99.90;;;;;;5074450;28;20401;-68
2022/10/20 14:26:55;;;;;;;;;;;25.60;99.90;;;;;;5074525;28;19947;-68